createdAt,value
2022-09-10T00:01:22.481Z,98718.34
2022-09-10T00:03:50.988Z,98714.50
2022-09-10T00:06:20.178Z,98711.34
2022-09-10T00:08:49.342Z,98708.53
2022-09-10T00:11:17.544Z,98704.47
2022-09-10T00:13:45.776Z,98698.75
2022-09-10T00:16:19.106Z,98714.69
2022-09-10T00:18:48.395Z,98705.41
2022-09-10T00:21:18.919Z,98708.09
2022-09-10T00:23:46.931Z,98703.41
2022-09-10T00:26:19.171Z,98710.16
2022-09-10T00:28:47.292Z,98702.59
2022-09-10T00:31:16.959Z,98702.25
2022-09-10T00:33:45.015Z,98700.38
2022-09-10T00:36:17.183Z,98704.72
2022-09-10T00:38:45.179Z,98700.03
2022-09-10T00:41:13.861Z,98697.34
2022-09-10T00:43:51.717Z,98710.53
2022-09-10T00:46:27.699Z,98709.16
2022-09-10T00:48:58.548Z,98700.09
2022-09-10T00:51:31.078Z,98704.34
2022-09-10T00:54:00.248Z,98703.56
2022-09-10T00:56:28.977Z,98704.25
2022-09-10T00:58:57.442Z,98695.44
2022-09-10T01:01:27.125Z,98701.66
2022-09-10T01:03:56.911Z,98709.06
2022-09-10T01:06:25.265Z,98705.00
2022-09-10T01:08:53.652Z,98690.75
2022-09-10T01:11:37.843Z,98697.22
2022-09-10T01:14:25.868Z,98687.00
2022-09-10T01:17:03.571Z,98702.09
2022-09-10T01:20:17.193Z,98701.44
2022-09-10T01:23:15.693Z,98711.84
2022-09-10T01:25:58.605Z,98705.16
2022-09-10T01:28:35.092Z,98695.38
2022-09-10T01:31:06.982Z,98690.47
2022-09-10T01:33:39.034Z,98684.13
2022-09-10T01:36:13.352Z,98678.56
2022-09-10T01:38:42.965Z,98683.53
2022-09-10T01:41:11.197Z,98702.47
2022-09-10T01:43:42.054Z,98699.72
2022-09-10T01:46:22.168Z,98697.06
2022-09-10T01:49:14.817Z,98691.75
2022-09-10T01:52:01.925Z,98682.38
2022-09-10T01:54:41.931Z,98684.31
2022-09-10T01:57:19.516Z,98685.22
2022-09-10T01:59:55.528Z,98682.22
2022-09-10T02:02:29.005Z,98673.28
2022-09-10T02:04:58.488Z,98678.34
2022-09-10T02:07:29.338Z,98681.78
2022-09-10T02:09:57.501Z,98693.88
2022-09-10T02:12:25.534Z,98695.88
2022-09-10T02:14:57.155Z,98692.03
2022-09-10T02:17:31.170Z,98693.34
2022-09-10T02:20:00.720Z,98686.38
2022-09-10T02:22:31.781Z,98685.84
2022-09-10T02:24:59.796Z,98692.03
2022-09-10T02:27:30.108Z,98691.38
2022-09-10T02:29:59.823Z,98684.84
2022-09-10T02:32:28.422Z,98684.00
2022-09-10T02:34:56.434Z,98685.69
2022-09-10T02:37:24.486Z,98686.16
2022-09-10T02:39:52.585Z,98687.00
2022-09-10T02:42:20.662Z,98685.38
2022-09-10T02:44:49.878Z,98682.31
2022-09-10T02:47:19.334Z,98683.47
2022-09-10T02:49:47.447Z,98683.63
2022-09-10T02:52:15.673Z,98699.19
2022-09-10T02:54:43.963Z,98691.13
2022-09-10T02:57:12.354Z,98699.00
2022-09-10T02:59:40.378Z,98697.00
2022-09-10T03:02:08.428Z,98689.06
2022-09-10T03:04:38.039Z,98692.56
2022-09-10T03:07:06.109Z,98692.75
2022-09-10T03:09:35.750Z,98691.19
2022-09-10T03:12:04.007Z,98679.03
2022-09-10T03:14:32.033Z,98687.28
2022-09-10T03:17:00.363Z,98694.72
2022-09-10T03:19:28.356Z,98691.38
2022-09-10T03:21:57.802Z,98689.34
2022-09-10T03:24:26.166Z,98693.47
2022-09-10T03:26:54.215Z,98699.56
2022-09-10T03:29:23.231Z,98692.38
2022-09-10T03:31:52.539Z,98711.75
2022-09-10T03:34:20.561Z,98706.22
2022-09-10T03:36:48.768Z,98701.47
2022-09-10T03:39:19.030Z,98710.91
2022-09-10T03:41:48.037Z,98726.72
2022-09-10T03:44:17.298Z,98720.78
2022-09-10T03:46:45.817Z,98718.53
2022-09-10T03:49:13.809Z,98725.88
2022-09-10T03:51:41.833Z,98730.84
2022-09-10T03:54:09.969Z,98726.19
2022-09-10T03:56:39.894Z,98730.13
2022-09-10T03:59:07.939Z,98723.28
2022-09-10T04:01:37.104Z,98730.28
2022-09-10T04:04:05.106Z,98725.97
2022-09-10T04:06:33.536Z,98728.72
2022-09-10T04:09:02.464Z,98736.06
2022-09-10T04:11:30.818Z,98724.53
2022-09-10T04:14:00.345Z,98722.69
2022-09-10T04:16:28.395Z,98732.19
2022-09-10T04:18:56.403Z,98731.94
2022-09-10T04:21:24.744Z,98733.75
2022-09-10T04:23:55.543Z,98720.38
2022-09-10T04:26:24.090Z,98729.09
2022-09-10T04:28:52.644Z,98714.44
2022-09-10T04:31:22.109Z,98709.94
2022-09-10T04:33:50.189Z,98718.97
2022-09-10T04:36:18.249Z,98714.13
2022-09-10T04:38:46.226Z,98718.69
2022-09-10T04:41:15.663Z,98693.09
2022-09-10T04:43:43.704Z,98690.53
2022-09-10T04:46:11.798Z,98709.09
2022-09-10T04:48:41.213Z,98706.28
2022-09-10T04:51:17.792Z,98706.56
2022-09-10T04:53:46.647Z,98703.31
2022-09-10T04:56:15.168Z,98703.44
2022-09-10T04:58:44.318Z,98718.53
2022-09-10T05:01:12.741Z,98703.47
2022-09-10T05:03:42.137Z,98712.59
2022-09-10T05:06:10.278Z,98718.91
2022-09-10T05:08:38.487Z,98713.47
2022-09-10T05:11:06.747Z,98726.25
2022-09-10T05:13:34.756Z,98722.28
2022-09-10T05:16:03.061Z,98723.44
2022-09-10T05:18:31.329Z,98720.63
2022-09-10T05:21:00.815Z,98725.09
2022-09-10T05:23:28.837Z,98724.81
2022-09-10T05:25:57.416Z,98723.28
2022-09-10T05:28:25.458Z,98726.81
2022-09-10T05:30:53.474Z,98728.06
2022-09-10T05:33:21.511Z,98723.88
2022-09-10T05:35:51.797Z,98728.91
2022-09-10T05:38:21.504Z,98728.91
2022-09-10T05:40:50.489Z,98730.72
2022-09-10T05:43:18.471Z,98737.19
2022-09-10T05:45:47.325Z,98726.09
2022-09-10T05:48:15.385Z,98731.84
2022-09-10T05:50:45.654Z,98736.50
2022-09-10T05:53:13.810Z,98736.38
2022-09-10T05:55:44.033Z,98738.22
2022-09-10T05:58:13.687Z,98736.41
2022-09-10T06:00:44.086Z,98740.19
2022-09-10T06:03:12.796Z,98744.25
2022-09-10T06:05:40.869Z,98741.09
2022-09-10T06:08:09.264Z,98751.59
2022-09-10T06:10:37.392Z,98750.47
2022-09-10T06:13:07.265Z,98757.94
2022-09-10T06:15:36.208Z,98779.34
2022-09-10T06:18:04.211Z,98769.75
2022-09-10T06:20:32.196Z,98771.63
2022-09-10T06:23:00.247Z,98776.38
2022-09-10T06:25:28.266Z,98774.78
2022-09-10T06:27:56.583Z,98773.69
2022-09-10T06:30:26.148Z,98771.28
2022-09-10T06:32:54.283Z,98763.97
2022-09-10T06:35:22.252Z,98771.00
2022-09-10T06:37:50.356Z,98767.31
2022-09-10T06:40:18.679Z,98765.94
2022-09-10T06:42:46.768Z,98763.13
2022-09-10T06:45:15.001Z,98772.09
2022-09-10T06:50:32.353Z,98765.50
2022-09-10T06:53:00.372Z,98781.53
2022-09-10T06:55:28.376Z,98737.56
2022-09-10T06:57:56.576Z,98785.75
2022-09-10T07:00:24.555Z,98780.00
2022-09-10T07:02:54.832Z,98781.72
2022-09-10T07:05:22.832Z,98779.75
2022-09-10T07:07:50.853Z,98796.75
2022-09-10T07:10:18.855Z,98802.81
2022-09-10T07:12:46.856Z,98804.94
2022-09-10T07:15:15.016Z,98798.44
2022-09-10T07:17:43.039Z,98801.72
2022-09-10T07:20:13.176Z,98817.16
2022-09-10T07:22:43.912Z,98812.66
2022-09-10T07:25:12.884Z,98807.25
2022-09-10T07:27:40.880Z,98804.88
2022-09-10T07:30:09.873Z,98816.41
2022-09-10T07:32:37.875Z,98827.13
2022-09-10T07:35:07.575Z,98823.63
2022-09-10T07:37:37.163Z,98830.94
2022-09-10T07:40:05.639Z,98828.69
2022-09-10T07:42:33.666Z,98836.44
2022-09-10T07:45:01.611Z,98841.94
2022-09-10T07:47:29.625Z,98842.47
2022-09-10T07:49:57.742Z,98837.44
2022-09-10T07:52:25.989Z,98843.19
2022-09-10T07:54:55.491Z,98851.50
2022-09-10T07:57:23.472Z,98856.63
2022-09-10T07:59:51.427Z,98858.72
2022-09-10T08:02:19.495Z,98863.78
2022-09-10T08:04:47.652Z,98862.66
2022-09-10T08:07:17.368Z,98872.50
2022-09-10T08:09:45.411Z,98861.81
2022-09-10T08:12:14.806Z,98870.25
2022-09-10T08:14:42.787Z,98879.56
2022-09-10T08:17:11.038Z,98876.72
2022-09-10T08:19:39.617Z,98870.69
2022-09-10T08:22:12.803Z,98871.97
2022-09-10T08:24:41.575Z,98874.31
2022-09-10T08:28:12.499Z,98862.78
2022-09-10T08:30:42.110Z,98862.91
2022-09-10T08:33:10.170Z,98872.63
2022-09-10T08:35:38.583Z,98879.69
2022-09-10T08:38:06.693Z,98885.03
2022-09-10T08:40:34.718Z,98879.09
2022-09-10T08:43:03.305Z,98880.78
2022-09-10T08:45:34.264Z,98880.25
2022-09-10T08:48:09.357Z,98884.75
2022-09-10T08:50:42.814Z,98891.66
2022-09-10T08:53:25.992Z,98882.50
2022-09-10T08:55:57.875Z,98894.19
2022-09-10T08:58:29.914Z,98895.03
2022-09-10T09:01:03.869Z,98896.59
2022-09-10T09:03:39.557Z,98897.22
2022-09-10T09:06:18.926Z,98897.06
2022-09-10T09:08:50.174Z,98891.03
2022-09-10T09:11:28.230Z,98894.00
2022-09-10T09:14:09.749Z,98902.88
2022-09-10T09:17:06.707Z,98890.53
2022-09-10T09:19:45.853Z,98905.31
2022-09-10T09:22:19.804Z,98911.53
2022-09-10T09:24:56.665Z,98904.88
2022-09-10T09:27:27.837Z,98912.78
2022-09-10T09:30:00.368Z,98920.53
2022-09-10T09:32:34.328Z,98913.91
2022-09-10T09:35:10.775Z,98910.13
2022-09-10T09:37:43.407Z,98907.88
2022-09-10T09:40:17.960Z,98931.53
2022-09-10T09:42:53.294Z,98917.44
2022-09-10T09:45:28.469Z,98929.34
2022-09-10T09:47:57.220Z,98924.00
2022-09-10T09:50:26.810Z,98919.13
2022-09-10T09:52:56.670Z,98913.19
2022-09-10T09:55:37.096Z,98913.97
2022-09-10T09:58:31.704Z,98926.91
2022-09-10T10:01:14.689Z,98901.69
2022-09-10T10:03:59.163Z,98920.47
2022-09-10T10:06:32.718Z,98909.09
2022-09-10T10:09:03.930Z,98907.50
2022-09-10T10:11:46.371Z,98905.94
2022-09-10T10:14:30.515Z,98909.28
2022-09-10T10:17:01.079Z,98907.63
2022-09-10T10:19:32.805Z,98905.69
2022-09-10T10:22:21.515Z,98909.38
2022-09-10T10:24:51.581Z,98898.31
2022-09-10T10:27:24.704Z,98901.47
2022-09-10T10:29:55.470Z,98899.66
2022-09-10T10:32:31.784Z,98889.19
2022-09-10T10:35:12.395Z,98895.47
2022-09-10T10:37:52.558Z,98883.31
2022-09-10T10:40:30.542Z,98889.31
2022-09-10T10:43:10.557Z,98883.47
2022-09-10T10:45:49.277Z,98883.91
2022-09-10T10:48:26.107Z,98883.34
2022-09-10T10:51:00.097Z,98886.22
2022-09-10T10:53:47.481Z,98871.59
2022-09-10T10:56:21.404Z,98871.88
2022-09-10T10:59:23.152Z,98862.81
2022-09-10T11:01:55.936Z,98853.41
2022-09-10T11:04:32.033Z,98850.50
2022-09-10T11:07:04.579Z,98859.06
2022-09-10T11:09:41.092Z,98859.63
2022-09-10T11:12:15.951Z,98853.69
2022-09-10T11:14:50.060Z,98855.94
2022-09-10T11:17:22.258Z,98854.59
2022-09-10T11:20:28.053Z,98836.09
2022-09-10T11:23:03.979Z,98852.41
2022-09-10T11:25:38.584Z,98857.44
2022-09-10T11:28:21.419Z,98857.28
2022-09-10T11:30:56.263Z,98853.59
2022-09-10T11:33:32.346Z,98850.56
2022-09-10T11:36:08.200Z,98857.09
2022-09-10T11:38:53.186Z,98848.25
2022-09-10T11:41:25.317Z,98843.53
2022-09-10T11:44:01.457Z,98857.31
2022-09-10T11:46:36.645Z,98850.56
2022-09-10T11:49:12.394Z,98831.31
2022-09-10T11:51:42.247Z,98843.00
2022-09-10T11:54:14.627Z,98857.56
2022-09-10T11:56:53.768Z,98836.16
2022-09-10T11:59:35.634Z,98847.19
2022-09-10T12:02:38.253Z,98854.81
2022-09-10T12:05:19.741Z,98844.28
2022-09-10T12:08:01.297Z,98848.31
2022-09-10T12:10:37.058Z,98848.34
2022-09-10T12:13:11.737Z,98844.03
2022-09-10T12:15:41.036Z,98847.00
2022-09-10T12:18:16.539Z,98840.16
2022-09-10T12:20:51.150Z,98836.09
2022-09-10T12:23:26.264Z,98822.50
2022-09-10T12:25:59.859Z,98836.38
2022-09-10T12:28:46.572Z,98838.03
2022-09-10T12:31:17.405Z,98840.16
2022-09-10T12:34:12.440Z,98848.28
2022-09-10T12:37:17.284Z,98840.41
2022-09-10T12:39:45.646Z,98829.91
2022-09-10T12:42:30.324Z,98840.50
2022-09-10T12:44:58.546Z,98828.38
2022-09-10T12:47:50.434Z,98838.69
2022-09-10T12:50:28.328Z,98812.00
2022-09-10T12:53:21.122Z,98833.69
2022-09-10T12:56:02.292Z,98830.25
2022-09-10T12:58:54.401Z,98819.03
2022-09-10T13:01:38.023Z,98825.56
2022-09-10T13:04:24.759Z,98831.69
2022-09-10T13:06:55.615Z,98820.78
2022-09-10T13:09:27.618Z,98812.13
2022-09-10T13:11:59.033Z,98813.00
2022-09-10T13:14:31.665Z,98814.50
2022-09-10T13:16:59.775Z,98788.94
2022-09-10T13:19:53.657Z,98811.63
2022-09-10T13:22:33.538Z,98806.97
2022-09-10T13:25:05.032Z,98812.13
2022-09-10T13:27:41.746Z,98814.22
2022-09-10T13:30:18.490Z,98806.44
2022-09-10T13:32:52.971Z,98808.13
2022-09-10T13:35:51.949Z,98805.47
2022-09-10T13:39:03.374Z,98820.16
2022-09-10T13:41:58.136Z,98819.06
2022-09-10T13:44:41.342Z,98812.75
2022-09-10T13:47:14.957Z,98815.59
2022-09-10T13:49:49.137Z,98824.88
2022-09-10T13:52:22.791Z,98827.19
2022-09-10T13:54:53.379Z,98828.03
2022-09-10T13:57:29.584Z,98814.69
2022-09-10T14:00:04.961Z,98811.81
2022-09-10T14:02:44.001Z,98807.44
2022-09-10T14:05:36.732Z,98802.06
2022-09-10T14:08:11.771Z,98813.66
2022-09-10T14:10:53.082Z,98812.72
2022-09-10T14:13:26.335Z,98821.94
2022-09-10T14:15:57.014Z,98818.09
2022-09-10T14:18:32.909Z,98814.56
2022-09-10T14:21:01.593Z,98830.03
2022-09-10T14:23:31.252Z,98831.03
2022-09-10T14:26:14.734Z,98823.50
2022-09-10T14:29:01.431Z,98829.72
2022-09-10T14:31:33.571Z,98826.34
2022-09-10T14:34:32.283Z,98821.97
2022-09-10T14:37:01.750Z,98828.72
2022-09-10T14:39:30.753Z,98821.81
2022-09-10T14:42:25.543Z,98829.19
2022-09-10T14:44:55.112Z,98824.47
2022-09-10T14:47:29.914Z,98833.03
2022-09-10T14:50:27.002Z,98832.97
2022-09-10T14:52:55.237Z,98843.31
2022-09-10T14:55:25.373Z,98846.22
2022-09-10T14:57:55.625Z,98872.31
2022-09-10T15:00:24.196Z,98885.47
2022-09-10T15:02:56.259Z,98894.00
2022-09-10T15:05:26.529Z,98890.19
2022-09-10T15:07:54.582Z,98887.41
2022-09-10T15:10:22.696Z,98878.50
2022-09-10T15:12:53.309Z,98873.81
2022-09-10T15:15:22.087Z,98875.53
2022-09-10T15:17:50.857Z,98882.38
2022-09-10T15:20:19.034Z,98884.34
2022-09-10T15:22:48.585Z,98885.28
2022-09-10T15:25:33.030Z,98881.09
2022-09-10T15:28:04.434Z,98888.38
2022-09-10T15:30:32.458Z,98871.34
2022-09-10T15:33:00.572Z,98884.00
2022-09-10T15:35:28.878Z,98880.38
2022-09-10T15:37:58.733Z,98881.22
2022-09-10T15:40:26.739Z,98869.09
2022-09-10T15:42:54.822Z,98884.28
2022-09-10T15:45:22.807Z,98877.97
2022-09-10T15:47:52.024Z,98862.53
2022-09-10T15:50:20.041Z,98868.97
2022-09-10T15:52:48.134Z,98867.06
2022-09-10T15:55:19.566Z,98870.56
2022-09-10T15:57:50.000Z,98869.28
2022-09-10T16:00:18.577Z,98865.84
2022-09-10T16:02:50.449Z,98866.75
2022-09-10T16:05:19.814Z,98868.97
2022-09-10T16:07:49.718Z,98869.75
2022-09-10T16:10:19.886Z,98853.97
2022-09-10T16:12:47.923Z,98854.56
2022-09-10T16:15:16.095Z,98848.47
2022-09-10T16:17:44.144Z,98852.00
2022-09-10T16:20:12.193Z,98852.19
2022-09-10T16:22:40.619Z,98856.28
2022-09-10T16:25:12.259Z,98862.59
2022-09-10T16:27:43.469Z,98857.47
2022-09-10T16:30:13.573Z,98860.78
2022-09-10T16:32:41.777Z,98863.06
2022-09-10T16:35:10.544Z,98867.31
2022-09-10T16:37:39.125Z,98866.75
2022-09-10T16:40:09.786Z,98845.06
2022-09-10T16:42:37.869Z,98858.84
2022-09-10T16:45:12.182Z,98860.94
2022-09-10T16:47:40.821Z,98808.41
2022-09-10T16:50:10.127Z,98851.00
2022-09-10T16:52:40.788Z,98858.44
2022-09-10T16:55:09.342Z,98856.66
2022-09-10T16:57:37.813Z,98858.91
2022-09-10T17:00:09.560Z,98862.88
2022-09-10T17:02:38.023Z,98866.94
2022-09-10T17:05:06.908Z,98871.97
2022-09-10T17:07:35.477Z,98873.25
2022-09-10T17:10:03.534Z,98876.06
2022-09-10T17:12:31.629Z,98870.63
2022-09-10T17:15:14.087Z,98868.13
2022-09-10T17:18:05.412Z,98881.09
2022-09-10T17:20:39.371Z,98890.66
2022-09-10T17:23:08.095Z,98856.91
2022-09-10T17:25:39.105Z,98865.06
2022-09-10T17:28:13.089Z,98853.66
2022-09-10T17:30:51.998Z,98843.56
2022-09-10T17:33:26.779Z,98815.28
2022-09-10T17:35:57.965Z,98849.44
2022-09-10T17:38:26.307Z,98884.72
2022-09-10T17:40:58.320Z,98836.50
2022-09-10T17:43:27.522Z,98824.44
2022-09-10T17:45:56.106Z,98877.97
2022-09-10T17:48:28.281Z,98888.03
2022-09-10T17:50:56.608Z,98886.75
2022-09-10T17:53:25.032Z,98859.03
2022-09-10T17:55:53.381Z,98865.19
2022-09-10T17:58:22.381Z,98855.41
2022-09-10T18:00:50.456Z,98874.66
2022-09-10T18:03:18.800Z,98880.25
2022-09-10T18:05:48.236Z,98885.78
2022-09-10T18:08:16.243Z,98900.19
2022-09-10T18:10:45.354Z,98896.38
2022-09-10T18:13:13.421Z,98903.00
2022-09-10T18:15:43.597Z,98897.25
2022-09-10T18:18:11.683Z,98917.50
2022-09-10T18:20:39.758Z,98921.31
2022-09-10T18:23:09.187Z,98916.09
2022-09-10T18:25:38.477Z,98932.00
2022-09-10T18:28:06.524Z,98921.75
2022-09-10T18:30:34.562Z,98935.72
2022-09-10T18:33:02.713Z,98929.25
2022-09-10T18:35:31.515Z,98928.41
2022-09-10T18:38:00.190Z,98938.81
2022-09-10T18:40:29.666Z,98944.88
2022-09-10T18:42:57.856Z,98937.81
2022-09-10T18:45:25.963Z,98937.84
2022-09-10T18:47:54.855Z,98947.84
2022-09-10T18:50:26.608Z,98942.75
2022-09-10T18:52:56.614Z,98945.56
2022-09-10T18:55:26.278Z,98945.72
2022-09-10T18:57:58.326Z,98945.72
2022-09-10T19:00:26.436Z,98938.25
2022-09-10T19:02:55.485Z,98942.63
2022-09-10T19:05:23.471Z,98946.56
2022-09-10T19:07:52.337Z,98960.78
2022-09-10T19:10:21.628Z,98953.44
2022-09-10T19:12:49.678Z,98954.03
2022-09-10T19:15:19.245Z,98964.16
2022-09-10T19:17:47.255Z,98962.22
2022-09-10T19:20:15.318Z,98961.94
2022-09-10T19:22:44.051Z,98969.28
2022-09-10T19:25:11.998Z,98960.66
2022-09-10T19:27:41.113Z,98969.00
2022-09-10T19:30:10.163Z,98970.28
2022-09-10T19:32:39.590Z,98977.59
2022-09-10T19:35:08.005Z,98976.59
2022-09-10T19:37:35.986Z,98980.97
2022-09-10T19:40:04.551Z,98981.81
2022-09-10T19:42:32.601Z,98977.88
2022-09-10T19:45:00.573Z,98987.44
2022-09-10T19:47:28.631Z,98980.25
2022-09-10T19:49:59.150Z,98976.88
2022-09-10T19:52:27.193Z,98980.25
2022-09-10T19:54:55.142Z,98978.56
2022-09-10T19:57:23.124Z,98985.63
2022-09-10T19:59:51.092Z,98988.16
2022-09-10T20:02:19.138Z,98991.69
2022-09-10T20:04:47.164Z,98988.00
2022-09-10T20:07:16.828Z,98990.97
2022-09-10T20:09:44.878Z,98981.50
2022-09-10T20:12:12.920Z,98977.03
2022-09-10T20:14:40.885Z,98989.28
2022-09-10T20:17:08.954Z,98977.31
2022-09-10T20:19:37.014Z,98974.50
2022-09-10T20:22:05.112Z,98981.84
2022-09-10T20:24:34.675Z,98978.56
2022-09-10T20:27:02.668Z,98970.97
2022-09-10T20:29:32.984Z,98970.81
2022-09-10T20:32:00.981Z,98977.88
2022-09-10T20:34:28.949Z,98981.41
2022-09-10T20:36:56.945Z,98972.09
2022-09-10T20:39:26.040Z,98965.88
2022-09-10T20:41:55.413Z,98970.41
2022-09-10T20:44:23.590Z,98969.84
2022-09-10T20:46:51.734Z,98973.47
2022-09-10T20:49:20.373Z,98972.34
2022-09-10T20:51:48.622Z,98980.13
2022-09-10T20:54:18.633Z,98986.75
2022-09-10T20:56:47.267Z,98983.50
2022-09-10T20:59:17.793Z,98991.38
2022-09-10T21:01:47.198Z,98990.41
2022-09-10T21:04:15.718Z,98974.34
2022-09-10T21:06:43.792Z,98977.72
2022-09-10T21:09:12.993Z,98971.09
2022-09-10T21:11:41.480Z,98966.03
2022-09-10T21:14:10.462Z,98964.63
2022-09-10T21:16:41.567Z,98964.75
2022-09-10T21:19:12.495Z,98958.84
2022-09-10T21:21:41.807Z,98959.97
2022-09-10T21:24:12.397Z,98971.78
2022-09-10T21:26:43.490Z,98973.19
2022-09-10T21:29:14.475Z,98976.16
2022-09-10T21:31:45.498Z,98970.94
2022-09-10T21:34:14.660Z,98976.72
2022-09-10T21:36:43.788Z,98979.25
2022-09-10T21:39:14.715Z,98967.28
2022-09-10T21:41:45.633Z,98980.78
2022-09-10T21:44:15.493Z,98965.31
2022-09-10T21:46:45.918Z,98987.81
2022-09-10T21:49:14.667Z,98987.28
2022-09-10T21:51:43.420Z,98995.72
2022-09-10T21:54:15.450Z,98993.03
2022-09-10T21:56:43.551Z,98979.09
2022-09-10T21:59:13.004Z,98973.50
2022-09-10T22:01:43.645Z,98976.16
2022-09-10T22:04:16.820Z,98984.91
2022-09-10T22:06:47.219Z,98981.38
2022-09-10T22:09:16.992Z,98989.72
2022-09-10T22:11:47.065Z,98987.03
2022-09-10T22:14:16.645Z,98987.47
2022-09-10T22:16:45.573Z,98993.53
2022-09-10T22:19:18.149Z,98998.88
2022-09-10T22:21:46.329Z,98992.53
2022-09-10T22:24:18.023Z,98993.38
2022-09-10T22:26:47.351Z,99003.38
2022-09-10T22:29:18.357Z,98999.56
2022-09-10T22:31:47.298Z,99011.41
2022-09-10T22:34:18.180Z,99001.69
2022-09-10T22:36:47.453Z,99009.28
2022-09-10T22:39:17.657Z,98999.13
2022-09-10T22:41:46.135Z,99000.97
2022-09-10T22:44:15.101Z,98999.03
2022-09-10T22:46:43.198Z,99019.72
2022-09-10T22:49:11.550Z,99011.81
2022-09-10T22:51:42.077Z,99008.44
2022-09-10T22:54:11.583Z,99010.28
2022-09-10T22:56:40.369Z,98998.13
2022-09-10T22:59:08.737Z,99008.72
2022-09-10T23:01:38.999Z,99008.84
2022-09-10T23:04:09.015Z,99005.91
2022-09-10T23:06:39.139Z,99013.38
2022-09-10T23:09:10.578Z,99009.31
2022-09-10T23:11:39.998Z,99005.31
2022-09-10T23:14:13.095Z,99010.16
2022-09-10T23:16:42.829Z,99022.81
2022-09-10T23:19:13.200Z,99015.47
2022-09-10T23:21:44.265Z,99022.25
2022-09-10T23:24:16.353Z,99017.19
2022-09-10T23:26:45.172Z,99009.00
2022-09-10T23:29:14.292Z,99018.56
2022-09-10T23:31:42.361Z,99018.03
2022-09-10T23:34:13.216Z,99020.28
2022-09-10T23:36:43.194Z,99026.19
2022-09-10T23:39:15.426Z,99011.13
2022-09-10T23:41:43.864Z,99025.06
2022-09-10T23:44:12.491Z,99028.31
2022-09-10T23:46:41.036Z,99029.03
2022-09-10T23:49:09.411Z,99029.03
2022-09-10T23:51:38.003Z,99009.69
2022-09-10T23:54:06.462Z,99020.81
2022-09-10T23:56:35.902Z,99027.88
2022-09-10T23:59:04.767Z,99021.69
